createdAt,value
2019-01-30T00:00:46.366Z,98677.39
2019-01-30T00:05:42.257Z,98668.02
2019-01-30T00:10:38.186Z,98659.14
2019-01-30T00:15:34.075Z,98660.25
2019-01-30T00:20:30.148Z,98659.97
2019-01-30T00:25:26.142Z,98648.70
2019-01-30T00:30:24.239Z,98639.00
2019-01-30T00:35:20.226Z,98633.47
2019-01-30T00:40:18.513Z,98615.59
2019-01-30T00:45:19.565Z,98615.09
2019-01-30T00:50:18.502Z,98599.34
2019-01-30T00:55:14.594Z,98592.97
2019-01-30T01:00:32.254Z,98592.61
2019-01-30T01:05:28.145Z,98582.27
2019-01-30T01:10:24.263Z,98573.53
2019-01-30T01:15:20.153Z,98565.55
2019-01-30T01:20:40.653Z,98568.09
2019-01-30T01:25:36.594Z,98569.80
2019-01-30T01:30:32.458Z,98569.16
2019-01-30T01:35:28.471Z,98560.16
2019-01-30T01:40:24.636Z,98556.38
2019-01-30T01:45:24.116Z,98550.46
2019-01-30T01:50:21.007Z,98542.02
2019-01-30T01:55:16.899Z,98538.52
2019-01-30T02:00:15.697Z,98524.95
2019-01-30T02:05:14.089Z,98521.39
2019-01-30T02:10:13.218Z,98515.77
2019-01-30T02:15:12.214Z,98509.11
2019-01-30T02:20:16.506Z,98506.67
2019-01-30T02:25:12.509Z,98498.13
2019-01-30T02:30:11.904Z,98498.00
2019-01-30T02:35:07.904Z,98495.09
2019-01-30T02:40:07.102Z,98489.88
2019-01-30T02:45:06.011Z,98483.21
2019-01-30T02:50:05.011Z,98469.70
2019-01-30T02:55:00.909Z,98463.77
2019-01-30T02:59:56.802Z,98456.67
2019-01-30T03:04:52.701Z,98451.77
2019-01-30T03:09:48.643Z,98448.20
2019-01-30T03:14:44.560Z,98431.46
2019-01-30T03:19:40.416Z,98431.09
2019-01-30T03:24:37.063Z,98428.05
2019-01-30T03:29:32.914Z,98428.30
2019-01-30T03:34:28.806Z,98426.30
2019-01-30T03:39:24.743Z,98426.03
2019-01-30T03:44:20.626Z,98425.66
2019-01-30T03:49:16.514Z,98426.16
2019-01-30T03:54:13.227Z,98414.60
2019-01-30T03:59:09.075Z,98415.02
2019-01-30T04:04:04.962Z,98411.27
2019-01-30T04:09:00.853Z,98413.31
2019-01-30T04:13:56.765Z,98403.44
2019-01-30T04:18:52.673Z,98397.78
2019-01-30T04:23:52.379Z,98397.78
2019-01-30T04:28:48.368Z,98396.02
2019-01-30T04:33:44.271Z,98381.91
2019-01-30T04:38:40.135Z,98385.05
2019-01-30T04:43:36.082Z,98375.22
2019-01-30T04:48:31.969Z,98375.10
2019-01-30T04:53:29.295Z,98374.77
2019-01-30T04:58:25.386Z,98376.63
2019-01-30T05:03:21.286Z,98377.92
2019-01-30T05:08:17.166Z,98376.51
2019-01-30T05:13:13.157Z,98368.06
2019-01-30T05:18:09.051Z,98374.23
2019-01-30T05:23:04.937Z,98365.14
2019-01-30T05:28:00.934Z,98362.84
2019-01-30T05:32:56.822Z,98356.02
2019-01-30T05:37:52.906Z,98347.37
2019-01-30T05:42:48.901Z,98344.97
2019-01-30T05:47:44.896Z,98342.61
2019-01-30T05:52:40.997Z,98336.73
2019-01-30T05:57:36.895Z,98334.86
2019-01-30T06:02:32.790Z,98331.91
2019-01-30T06:07:28.677Z,98336.16
2019-01-30T06:12:24.575Z,98327.92
2019-01-30T06:17:20.462Z,98315.73
2019-01-30T06:22:16.351Z,98318.38
2019-01-30T06:27:12.342Z,98314.95
2019-01-30T06:32:08.235Z,98329.27
2019-01-30T06:37:04.130Z,98323.11
2019-01-30T06:42:00.022Z,98311.41
2019-01-30T06:46:56.023Z,98308.50
2019-01-30T06:51:51.915Z,98312.39
2019-01-30T06:56:47.829Z,98304.75
2019-01-30T07:01:43.704Z,98292.84
2019-01-30T07:06:39.592Z,98289.28
2019-01-30T07:11:35.480Z,98280.70
2019-01-30T07:16:31.376Z,98268.88
2019-01-30T07:21:27.266Z,98262.36
2019-01-30T07:26:23.263Z,98249.19
2019-01-30T07:31:19.392Z,98251.50
2019-01-30T07:36:15.249Z,98243.28
2019-01-30T07:41:11.143Z,98246.37
2019-01-30T07:46:07.033Z,98235.80
2019-01-30T07:51:03.041Z,98237.25
2019-01-30T07:55:59.086Z,98242.94
2019-01-30T08:00:54.977Z,98235.92
2019-01-30T08:05:50.955Z,98232.94
2019-01-30T08:10:46.990Z,98234.19
2019-01-30T08:15:42.878Z,98233.72
2019-01-30T08:20:38.875Z,98230.77
2019-01-30T08:25:34.766Z,98219.42
2019-01-30T08:30:30.871Z,98223.25
2019-01-30T08:35:28.456Z,98219.23
2019-01-30T08:40:24.341Z,98216.38
2019-01-30T08:45:25.383Z,98214.59
2019-01-30T08:50:21.381Z,98213.02
2019-01-30T08:55:17.266Z,98215.42
2019-01-30T09:05:42.229Z,98220.80
2019-01-30T09:10:38.157Z,98209.91
2019-01-30T09:15:34.040Z,98207.63
2019-01-30T09:20:29.936Z,98207.22
2019-01-30T09:25:27.930Z,98214.11
2019-01-30T09:30:26.323Z,98207.12
2019-01-30T09:35:22.441Z,98205.92
2019-01-30T09:40:20.116Z,98207.53
2019-01-30T09:45:17.395Z,98201.14
2019-01-30T09:50:17.644Z,98202.23
2019-01-30T09:55:18.876Z,98197.45
2019-01-30T10:00:29.896Z,98205.84
2019-01-30T10:05:25.886Z,98213.62
2019-01-30T10:10:28.030Z,98216.60
2019-01-30T10:15:45.702Z,98214.38
2019-01-30T10:20:44.096Z,98211.41
2019-01-30T10:25:39.993Z,98211.09
2019-01-30T10:30:38.584Z,98207.58
2019-01-30T10:35:34.775Z,98207.22
2019-01-30T10:40:30.660Z,98213.48
2019-01-30T10:45:26.728Z,98195.47
2019-01-30T10:50:24.648Z,98191.00
2019-01-30T10:55:25.405Z,98188.84
2019-01-30T11:00:24.412Z,98191.66
2019-01-30T11:05:20.507Z,98189.59
2019-01-30T11:10:18.230Z,98186.16
2019-01-30T11:15:16.641Z,98175.44
2019-01-30T11:20:17.855Z,98174.25
2019-01-30T11:25:25.422Z,98168.55
2019-01-30T11:30:21.318Z,98163.70
2019-01-30T11:35:17.310Z,98155.33
2019-01-30T11:40:20.567Z,98149.06
2019-01-30T11:45:26.071Z,98134.34
2019-01-30T11:50:22.056Z,98137.04
2019-01-30T11:55:18.254Z,98136.05
2019-01-30T12:00:43.533Z,98144.82
2019-01-30T12:05:39.830Z,98141.62
2019-01-30T12:10:35.845Z,98148.91
2019-01-30T12:15:31.739Z,98140.52
2019-01-30T12:20:27.625Z,98144.64
2019-01-30T12:25:23.526Z,98140.25
2019-01-30T12:30:26.988Z,98141.34
2019-01-30T12:35:22.982Z,98134.83
2019-01-30T12:40:21.509Z,98134.62
2019-01-30T12:45:20.703Z,98135.13
2019-01-30T12:50:16.695Z,98131.45
2019-01-30T12:55:12.853Z,98123.66
2019-01-30T13:00:20.924Z,98125.31
2019-01-30T13:05:17.620Z,98121.16
2019-01-30T13:10:13.639Z,98113.49
2019-01-30T13:15:12.135Z,98106.14
2019-01-30T13:20:11.845Z,98103.44
2019-01-30T13:25:10.761Z,98104.63
2019-01-30T13:30:33.045Z,98106.92
2019-01-30T13:35:29.965Z,98114.50
2019-01-30T13:40:32.171Z,98110.14
2019-01-30T13:45:29.882Z,98114.91
2019-01-30T13:50:29.250Z,98115.12
2019-01-30T13:55:25.439Z,98106.25
2019-01-30T14:00:33.709Z,98107.55
2019-01-30T14:05:29.858Z,98109.55
2019-01-30T14:10:28.351Z,98111.73
2019-01-30T14:15:26.686Z,98115.42
2019-01-30T14:20:22.662Z,98122.89
2019-01-30T14:25:18.658Z,98127.59
2019-01-30T14:30:26.231Z,98123.09
2019-01-30T14:35:23.635Z,98124.59
2019-01-30T14:40:20.428Z,98120.30
2019-01-30T14:45:18.185Z,98125.20
2019-01-30T14:50:17.067Z,98123.20
2019-01-30T14:55:13.678Z,98117.91
2019-01-30T15:00:23.932Z,98127.97
2019-01-30T15:05:22.528Z,98133.47
2019-01-30T15:10:22.551Z,98134.18
2019-01-30T15:15:21.762Z,98139.05
2019-01-30T15:20:24.344Z,98136.05
2019-01-30T15:25:21.992Z,98140.25
2019-01-30T15:30:21.709Z,98144.84
2019-01-30T15:35:17.811Z,98138.44
2019-01-30T15:40:19.886Z,98137.76
2019-01-30T15:45:18.288Z,98130.19
2019-01-30T15:50:38.855Z,98133.87
2019-01-30T15:55:34.995Z,98139.16
2019-01-30T16:00:37.397Z,98137.16
2019-01-30T16:05:44.096Z,98142.42
2019-01-30T16:10:32.431Z,98140.94
2019-01-30T16:15:34.710Z,98144.83
2019-01-30T16:20:30.597Z,98148.42
2019-01-30T16:25:26.600Z,98144.02
2019-01-30T16:30:23.780Z,98146.22
2019-01-30T16:35:55.768Z,98146.92
2019-01-30T16:40:46.537Z,98151.20
2019-01-30T16:45:42.641Z,98153.81
2019-01-30T16:50:38.545Z,98157.19
2019-01-30T16:55:37.905Z,98170.64
2019-01-30T17:00:35.888Z,98174.53
2019-01-30T17:05:31.983Z,98178.13
2019-01-30T17:10:27.997Z,98176.12
2019-01-30T17:15:30.154Z,98173.73
2019-01-30T17:20:32.263Z,98176.12
2019-01-30T17:25:28.461Z,98180.73
2019-01-30T17:30:48.742Z,98183.02
2019-01-30T17:35:44.765Z,98189.09
2019-01-30T17:40:40.859Z,98194.67
2019-01-30T17:45:36.754Z,98194.66
2019-01-30T17:50:32.655Z,98195.27
2019-01-30T17:55:28.558Z,98201.63
2019-01-30T18:00:32.222Z,98201.62
2019-01-30T18:05:28.122Z,98203.02
2019-01-30T18:10:24.143Z,98208.95
2019-01-30T18:15:20.046Z,98211.55
2019-01-30T18:20:20.016Z,98212.84
2019-01-30T18:25:16.715Z,98214.71
2019-01-30T18:30:15.723Z,98216.63
2019-01-30T18:35:12.328Z,98217.67
2019-01-30T18:40:12.047Z,98215.52
2019-01-30T18:45:11.640Z,98218.97
2019-01-30T18:50:14.085Z,98221.74
2019-01-30T18:55:11.100Z,98233.57
2019-01-30T19:00:13.608Z,98231.92
2019-01-30T19:05:12.126Z,98237.01
2019-01-30T19:10:11.451Z,98234.71
2019-01-30T19:15:14.462Z,98242.17
2019-01-30T19:20:13.835Z,98257.60
2019-01-30T19:25:09.825Z,98255.59
2019-01-30T19:30:09.532Z,98255.53
2019-01-30T19:35:06.927Z,98259.75
2019-01-30T19:40:06.235Z,98267.34
2019-01-30T19:45:05.901Z,98269.20
2019-01-30T19:50:04.574Z,98280.66
2019-01-30T19:55:06.882Z,98282.89
2019-01-30T20:00:27.100Z,98290.30
2019-01-30T20:05:28.816Z,98300.67
2019-01-30T20:10:27.622Z,98304.41
2019-01-30T20:15:25.049Z,98312.96
2019-01-30T20:20:21.365Z,98321.97
2019-01-30T20:25:26.684Z,98320.88
2019-01-30T20:36:21.210Z,98332.32
2019-01-30T20:41:17.101Z,98338.31
2019-01-30T20:46:12.973Z,98337.69
2019-01-30T20:51:08.852Z,98344.99
2019-01-30T20:56:04.857Z,98353.67
2019-01-30T21:01:00.849Z,98361.81
2019-01-30T21:05:56.750Z,98363.11
2019-01-30T21:10:53.425Z,98370.20
2019-01-30T21:15:55.032Z,98363.61
2019-01-30T21:20:53.612Z,98362.20
2019-01-30T21:25:53.256Z,98373.62
2019-01-30T21:30:49.892Z,98375.33
2019-01-30T21:35:46.576Z,98381.53
2019-01-30T21:40:43.729Z,98388.08
2019-01-30T21:45:40.572Z,98392.27
2019-01-30T21:50:38.799Z,98395.95
2019-01-30T21:55:36.049Z,98393.25
2019-01-30T22:00:32.878Z,98403.14
2019-01-30T22:05:30.254Z,98400.12
2019-01-30T22:10:28.347Z,98403.48
2019-01-30T22:15:25.052Z,98403.86
2019-01-30T22:20:26.899Z,98400.17
2019-01-30T22:25:26.091Z,98402.64
2019-01-30T22:30:28.917Z,98413.10
2019-01-30T22:35:25.556Z,98414.08
2019-01-30T22:40:22.877Z,98425.53
2019-01-30T22:45:20.525Z,98431.02
2019-01-30T22:50:18.421Z,98425.00
2019-01-30T22:55:21.050Z,98425.31
2019-01-30T23:00:38.135Z,98422.09
2019-01-30T23:05:48.047Z,98432.42
2019-01-30T23:10:48.846Z,98434.70
2019-01-30T23:16:12.184Z,98440.40
2019-01-30T23:21:13.134Z,98439.77
2019-01-30T23:26:13.508Z,98439.09
2019-01-30T23:31:25.739Z,98443.30
2019-01-30T23:37:05.273Z,98444.22
2019-01-30T23:42:08.499Z,98438.47
2019-01-30T23:47:20.796Z,98441.62
2019-01-30T23:52:26.963Z,98437.68
2019-01-30T23:57:42.366Z,98436.64
